Time;durP1;ratioP1;P1;durP2;ratioP2;P2;SDS_P1;SDS_P2;PMS_P1;PMS_P2;Temp;Humidity;BMP_temperature;BMP_pressure;BME280_temperature;BME280_humidity;BME280_pressure;Samples;Min_cycle;Max_cycle;Signal;HPM_P1;HPM_P2
2021/01/25 11:24:32;;;;;;;16.83;7.67;;;4.70;99.90;;;;;;5049763;22;20647;-78
2021/01/25 11:27:00;;;;;;;15.77;7.43;;;4.70;99.90;;;;;;5049145;28;20212;-73
2021/01/25 11:29:29;;;;;;;14.00;6.30;;;4.60;99.90;;;;;;5050838;28;20212;-73
2021/01/25 11:31:57;;;;;;;13.07;6.30;;;4.60;99.90;;;;;;5050635;28;20224;-82
2021/01/25 11:34:23;;;;;;;15.73;6.50;;;4.60;99.90;;;;;;5042265;28;20212;-79
2021/01/25 11:36:51;;;;;;;14.57;7.40;;;4.60;99.90;;;;;;5042690;28;20208;-77
2021/01/25 11:39:17;;;;;;;15.70;7.10;;;4.70;99.90;;;;;;5039851;28;20207;-76
2021/01/25 11:41:44;;;;;;;16.90;7.20;;;4.90;99.90;;;;;;5044318;28;20231;-78
2021/01/25 11:44:10;;;;;;;15.97;7.63;;;5.00;99.90;;;;;;5041048;28;21092;-77
2021/01/25 11:46:37;;;;;;;14.10;6.47;;;5.10;99.90;;;;;;5034648;28;20211;-74
2021/01/25 11:49:03;;;;;;;13.10;6.50;;;5.10;99.90;;;;;;5042028;28;20255;-73
2021/01/25 11:51:30;;;;;;;14.40;6.57;;;5.20;99.90;;;;;;5042611;28;20227;-73
2021/01/25 11:53:56;;;;;;;14.10;6.27;;;5.20;99.90;;;;;;5039191;28;20209;-69
2021/01/25 11:56:22;;;;;;;15.33;6.80;;;5.10;99.90;;;;;;5032464;28;20552;-71
2021/01/25 11:58:49;;;;;;;12.43;5.63;;;5.00;99.90;;;;;;5036068;28;20205;-72
2021/01/25 12:01:15;;;;;;;11.93;5.60;;;5.10;99.90;;;;;;5033539;28;20236;-69
2021/01/25 12:03:42;;;;;;;12.80;6.07;;;5.20;99.90;;;;;;5036222;28;20548;-69
2021/01/25 12:06:08;;;;;;;13.70;6.30;;;5.20;99.90;;;;;;5036454;28;20205;-69
2021/01/25 12:08:35;;;;;;;11.47;5.33;;;5.10;99.90;;;;;;5036117;28;20232;-68
2021/01/25 12:11:01;;;;;;;13.83;5.57;;;5.20;99.90;;;;;;5035993;28;20225;-68
2021/01/25 12:13:28;;;;;;;10.03;4.97;;;5.40;99.90;;;;;;5035934;28;20255;-70
2021/01/25 12:15:55;;;;;;;10.30;4.27;;;5.50;99.90;;;;;;5036156;28;20205;-68
2021/01/25 12:18:21;;;;;;;9.90;5.40;;;5.50;99.90;;;;;;5036038;28;20671;-67
2021/01/25 12:20:48;;;;;;;10.70;5.50;;;5.50;99.90;;;;;;5036069;28;20244;-69
2021/01/25 12:23:14;;;;;;;12.90;5.50;;;5.50;99.90;;;;;;5036089;28;20201;-68
2021/01/25 12:25:40;;;;;;;10.90;5.43;;;5.50;99.90;;;;;;5035546;28;20236;-69
2021/01/25 12:28:07;;;;;;;9.80;4.93;;;5.60;99.90;;;;;;5035711;28;20233;-68
2021/01/25 12:30:33;;;;;;;10.23;4.80;;;5.60;99.90;;;;;;5035739;28;20263;-68
2021/01/25 12:33:00;;;;;;;11.73;5.47;;;5.60;99.90;;;;;;5035760;28;20702;-69
2021/01/25 12:35:27;;;;;;;10.47;5.60;;;5.70;99.90;;;;;;5035826;28;20251;-68
2021/01/25 12:37:55;;;;;;;15.10;5.80;;;5.80;99.90;;;;;;5035627;28;20563;-69
2021/01/25 12:40:23;;;;;;;11.03;5.07;;;5.70;99.90;;;;;;5035285;28;20205;-68
2021/01/25 12:42:51;;;;;;;11.33;5.30;;;5.60;99.90;;;;;;5035629;28;20324;-68
2021/01/25 12:45:18;;;;;;;11.00;4.53;;;5.60;99.90;;;;;;5035172;28;20568;-68
2021/01/25 12:47:44;;;;;;;11.37;4.70;;;5.70;99.90;;;;;;5035808;28;20229;-68
2021/01/25 12:50:12;;;;;;;9.93;4.60;;;5.70;99.90;;;;;;5035580;28;20212;-75
2021/01/25 12:52:38;;;;;;;10.97;4.97;;;5.80;99.90;;;;;;5035272;28;20231;-70
2021/01/25 12:55:09;;;;;;;8.60;4.30;;;5.90;99.90;;;;;;5035210;28;20204;-68
2021/01/25 12:57:36;;;;;;;12.93;4.40;;;5.90;99.90;;;;;;5035269;28;20212;-74
2021/01/25 13:00:03;;;;;;;7.80;3.87;;;5.90;99.90;;;;;;5035448;28;20211;-69
2021/01/25 13:02:29;;;;;;;8.40;3.27;;;5.90;99.90;;;;;;5035223;28;20279;-72
2021/01/25 13:04:56;;;;;;;8.23;4.23;;;5.90;99.90;;;;;;5035478;28;20579;-76
2021/01/25 13:07:23;;;;;;;9.83;5.07;;;6.10;99.90;;;;;;5034936;28;20381;-79
2021/01/25 13:09:49;;;;;;;9.07;4.27;;;6.00;99.90;;;;;;5035190;28;20292;-71
2021/01/25 13:12:15;;;;;;;9.67;4.40;;;6.00;99.90;;;;;;5034173;28;20224;-73
2021/01/25 13:14:42;;;;;;;11.33;4.83;;;5.90;99.90;;;;;;5035154;28;20205;-69
2021/01/25 13:17:08;;;;;;;11.20;5.10;;;6.00;99.90;;;;;;5034905;28;20209;-77
2021/01/25 13:19:34;;;;;;;9.80;4.53;;;6.10;99.90;;;;;;5034958;28;20582;-69
2021/01/25 13:22:00;;;;;;;7.83;4.10;;;6.10;99.90;;;;;;5034628;28;20228;-70
2021/01/25 13:24:27;;;;;;;9.93;3.70;;;6.20;99.90;;;;;;5034849;28;20681;-72
2021/01/25 13:26:54;;;;;;;9.23;3.97;;;6.20;99.90;;;;;;5034559;28;20201;-74
2021/01/25 13:29:20;;;;;;;9.00;4.10;;;6.10;99.90;;;;;;5030985;28;20240;-68
2021/01/25 13:31:46;;;;;;;10.33;4.33;;;6.10;99.90;;;;;;5034579;28;20587;-78
2021/01/25 13:34:12;;;;;;;10.47;3.87;;;6.10;99.90;;;;;;5034884;28;20228;-67
2021/01/25 13:36:39;;;;;;;9.17;4.13;;;6.10;99.90;;;;;;5034191;28;20222;-73
2021/01/25 13:39:05;;;;;;;8.53;3.93;;;6.30;99.90;;;;;;5029785;28;20204;-75
2021/01/25 13:41:32;;;;;;;9.20;4.17;;;6.20;99.90;;;;;;5050756;28;20224;-72
2021/01/25 13:43:59;;;;;;;7.70;3.30;;;6.10;99.90;;;;;;5047999;28;20205;-74
2021/01/25 13:46:25;;;;;;;7.63;3.60;;;6.10;99.90;;;;;;5050961;28;20570;-73
2021/01/25 13:48:51;;;;;;;6.17;2.90;;;6.10;99.90;;;;;;5049764;28;20694;-75
2021/01/25 13:51:17;;;;;;;5.23;2.63;;;6.20;99.90;;;;;;5038781;28;20252;-71
2021/01/25 13:53:44;;;;;;;4.50;2.50;;;6.10;99.90;;;;;;5033610;28;20921;-69
2021/01/25 13:56:10;;;;;;;8.60;3.40;;;6.10;99.90;;;;;;5044957;28;20208;-69
2021/01/25 13:58:37;;;;;;;6.17;3.00;;;6.20;99.90;;;;;;5033430;28;20737;-70
2021/01/25 14:01:06;;;;;;;8.20;3.50;;;6.20;99.90;;;;;;5044579;28;20274;-73
2021/01/25 14:03:32;;;;;;;9.37;3.30;;;6.10;99.90;;;;;;5052427;28;20204;-69
2021/01/25 14:05:59;;;;;;;7.00;3.13;;;6.20;99.90;;;;;;5049371;28;20205;-70
2021/01/25 14:08:25;;;;;;;6.37;2.50;;;6.30;99.90;;;;;;5032402;28;20243;-77
2021/01/25 14:10:51;;;;;;;5.23;2.20;;;6.30;99.90;;;;;;5044044;28;20204;-70
2021/01/25 14:13:18;;;;;;;5.47;2.50;;;6.20;99.90;;;;;;5053530;28;20270;-70
2021/01/25 14:15:45;;;;;;;5.43;1.90;;;6.40;99.90;;;;;;5050289;28;20203;-72
2021/01/25 14:18:12;;;;;;;5.00;2.03;;;6.30;99.90;;;;;;5038677;28;20211;-69
2021/01/25 14:20:38;;;;;;;3.60;2.10;;;6.30;99.90;;;;;;5039014;28;20209;-71
2021/01/25 14:23:05;;;;;;;4.70;2.23;;;6.40;99.90;;;;;;5045297;28;20254;-69
2021/01/25 14:25:32;;;;;;;4.07;2.00;;;6.60;99.90;;;;;;5051288;28;20216;-71
2021/01/25 14:27:58;;;;;;;3.83;2.03;;;6.60;99.90;;;;;;5044360;28;20698;-75
2021/01/25 14:30:25;;;;;;;4.20;2.23;;;6.70;99.90;;;;;;5040466;28;20216;-71
2021/01/25 14:32:53;;;;;;;4.30;2.20;;;6.80;99.90;;;;;;5033366;28;20271;-70
2021/01/25 14:35:21;;;;;;;6.97;2.20;;;6.80;99.90;;;;;;5047754;28;20635;-71
2021/01/25 14:37:47;;;;;;;4.73;1.60;;;6.70;99.90;;;;;;5033016;28;20559;-71
2021/01/25 14:40:14;;;;;;;2.30;1.30;;;6.50;99.90;;;;;;5037983;28;20606;-70
2021/01/25 14:42:42;;;;;;;2.97;1.83;;;6.00;99.90;;;;;;5042942;28;20568;-71
2021/01/25 14:45:09;;;;;;;3.50;1.87;;;5.80;99.90;;;;;;5032345;28;20208;-69
2021/01/25 14:47:38;;;;;;;4.13;1.93;;;5.50;99.90;;;;;;5032590;28;20213;-71
2021/01/25 14:50:07;;;;;;;3.20;1.87;;;5.00;99.90;;;;;;5047908;28;20207;-70
2021/01/25 14:52:33;;;;;;;5.67;2.43;;;4.80;99.90;;;;;;5043137;28;20310;-70
2021/01/25 14:54:59;;;;;;;5.53;2.67;;;4.70;99.90;;;;;;5033149;28;20205;-74
2021/01/25 14:57:26;;;;;;;5.87;2.67;;;4.70;99.90;;;;;;5047827;28;20212;-76
2021/01/25 14:59:52;;;;;;;5.13;3.20;;;4.60;99.90;;;;;;5035140;28;20208;-71
2021/01/25 15:02:18;;;;;;;7.03;1.90;;;4.70;99.90;;;;;;5045733;28;20236;-71
2021/01/25 15:04:44;;;;;;;4.17;2.23;;;4.70;99.90;;;;;;5042096;28;20223;-71
2021/01/25 15:07:12;;;;;;;4.10;2.13;;;4.80;99.90;;;;;;5051787;28;20651;-70
2021/01/25 15:09:38;;;;;;;4.00;2.27;;;5.00;99.90;;;;;;5046494;28;20292;-72
2021/01/25 15:12:05;;;;;;;4.80;2.50;;;5.20;99.90;;;;;;5032397;28;20237;-71
2021/01/25 15:14:31;;;;;;;6.33;2.10;;;5.30;99.90;;;;;;5040230;28;20261;-71
2021/01/25 15:16:59;;;;;;;4.37;2.10;;;5.30;99.90;;;;;;5047632;28;20748;-69
2021/01/25 15:19:25;;;;;;;3.63;2.27;;;5.40;99.90;;;;;;5031852;28;20258;-70
2021/01/25 15:21:51;;;;;;;3.83;2.30;;;5.40;99.90;;;;;;5047297;28;20600;-70
2021/01/25 15:24:20;;;;;;;5.37;2.30;;;5.50;99.90;;;;;;5051976;28;20208;-78
2021/01/25 15:26:47;;;;;;;4.73;2.20;;;5.50;99.90;;;;;;5050809;28;20511;-79
2021/01/25 15:29:13;;;;;;;4.47;1.87;;;5.70;99.90;;;;;;5035999;28;20387;-75
2021/01/25 15:31:39;;;;;;;4.57;2.00;;;5.80;99.90;;;;;;5044867;28;20231;-77
2021/01/25 15:34:06;;;;;;;4.73;2.30;;;5.80;99.90;;;;;;5042657;28;20227;-68
2021/01/25 15:36:36;;;;;;;5.30;2.30;;;5.80;99.90;;;;;;5052012;28;20246;-69
2021/01/25 15:39:04;;;;;;;5.40;1.97;;;5.90;99.90;;;;;;5052286;28;20630;-71
2021/01/25 15:41:31;;;;;;;5.40;2.30;;;5.80;99.90;;;;;;5040746;28;20220;-74
2021/01/25 15:43:58;;;;;;;5.00;1.77;;;5.80;99.90;;;;;;5048474;28;20207;-71
2021/01/25 15:46:24;;;;;;;3.90;1.70;;;5.70;99.90;;;;;;5035872;28;20219;-69
2021/01/25 15:48:51;;;;;;;3.20;1.47;;;5.50;99.90;;;;;;5033019;28;20900;-69
2021/01/25 15:51:17;;;;;;;2.23;1.30;;;5.40;99.90;;;;;;5045897;28;20231;-73
2021/01/25 15:53:43;;;;;;;3.50;1.20;;;5.40;99.90;;;;;;5051158;28;20204;-76
2021/01/25 15:56:09;;;;;;;2.77;1.10;;;5.40;99.90;;;;;;5033870;28;20216;-74
2021/01/25 15:58:36;;;;;;;2.30;1.20;;;5.40;99.90;;;;;;5033167;28;20204;-72
2021/01/25 16:01:03;;;;;;;2.93;1.43;;;5.40;99.90;;;;;;5032849;28;20224;-72
2021/01/25 16:03:29;;;;;;;3.20;1.40;;;5.40;99.90;;;;;;5033570;28;20200;-71
2021/01/25 16:05:56;;;;;;;5.10;1.80;;;5.40;99.90;;;;;;5033310;28;20201;-73
2021/01/25 16:08:22;;;;;;;4.13;1.33;;;5.30;99.90;;;;;;5033600;28;20294;-73
2021/01/25 16:10:48;;;;;;;2.87;1.30;;;5.30;99.90;;;;;;5033087;28;20663;-71
2021/01/25 16:13:15;;;;;;;3.57;1.67;;;5.30;99.90;;;;;;5032813;28;20231;-73
2021/01/25 16:15:42;;;;;;;2.37;1.47;;;5.20;99.90;;;;;;5032715;28;20355;-71
2021/01/25 16:18:08;;;;;;;3.17;0.97;;;5.30;99.90;;;;;;5038339;28;20208;-72
2021/01/25 16:20:35;;;;;;;2.40;1.10;;;5.20;99.90;;;;;;5039763;28;20216;-71
2021/01/25 16:23:01;;;;;;;3.60;1.20;;;5.00;99.90;;;;;;5036167;28;20285;-73
2021/01/25 16:25:27;;;;;;;2.17;1.10;;;4.90;99.90;;;;;;5008015;28;821992;-71
2021/01/25 16:27:53;;;;;;;3.97;1.30;;;4.90;99.90;;;;;;5033931;28;20722;-73
2021/01/25 16:30:20;;;;;;;1.40;0.83;;;5.00;99.90;;;;;;5034510;28;20209;-74
2021/01/25 16:32:47;;;;;;;1.93;1.20;;;4.90;99.90;;;;;;5041617;28;20231;-74
2021/01/25 16:35:15;;;;;;;1.50;1.00;;;5.00;99.90;;;;;;5033859;28;20219;-72
2021/01/25 16:37:41;;;;;;;1.97;1.27;;;4.90;99.90;;;;;;5033644;28;20292;-74
2021/01/25 16:40:08;;;;;;;1.07;0.90;;;4.90;99.90;;;;;;5032729;28;20592;-76
2021/01/25 16:42:34;;;;;;;1.73;1.03;;;4.90;99.90;;;;;;5032455;28;20235;-73
2021/01/25 16:45:01;;;;;;;1.90;0.93;;;4.80;99.90;;;;;;5032196;28;20205;-75
2021/01/25 16:47:27;;;;;;;1.77;1.00;;;4.80;99.90;;;;;;5034300;28;20217;-71
2021/01/25 16:49:54;;;;;;;2.67;1.20;;;4.80;99.90;;;;;;5035027;28;20718;-71
2021/01/25 16:52:21;;;;;;;2.20;1.27;;;4.80;99.90;;;;;;5032995;28;20229;-68
2021/01/25 16:54:47;;;;;;;5.27;0.90;;;4.80;99.90;;;;;;5033225;28;20540;-78
2021/01/25 16:57:13;;;;;;;5.63;0.90;;;4.80;99.90;;;;;;5032902;28;20259;-76
2021/01/25 16:59:39;;;;;;;2.10;1.30;;;4.70;99.90;;;;;;5033448;28;20201;-81
2021/01/25 17:02:06;;;;;;;3.00;1.03;;;4.70;99.90;;;;;;5033282;28;20310;-69
2021/01/25 17:04:32;;;;;;;4.30;0.90;;;4.70;99.90;;;;;;5032775;28;20205;-70
2021/01/25 17:06:59;;;;;;;3.80;1.03;;;4.70;99.90;;;;;;5033656;28;20209;-69
2021/01/25 17:09:26;;;;;;;1.67;0.90;;;4.70;99.90;;;;;;5033465;28;20323;-69
2021/01/25 17:11:52;;;;;;;2.40;0.97;;;4.60;99.90;;;;;;5032375;28;20248;-69
2021/01/25 17:14:18;;;;;;;1.70;0.90;;;4.60;99.90;;;;;;5032159;28;20200;-69
2021/01/25 17:16:44;;;;;;;5.60;1.40;;;4.60;99.90;;;;;;5033572;28;20209;-69
2021/01/25 17:19:11;;;;;;;3.43;1.30;;;4.60;99.90;;;;;;5032021;28;20656;-70
2021/01/25 17:21:37;;;;;;;4.10;1.30;;;4.60;99.90;;;;;;5033641;28;20224;-80
2021/01/25 17:24:05;;;;;;;3.77;1.17;;;4.50;99.90;;;;;;5026920;28;20209;-71
2021/01/25 17:26:31;;;;;;;3.17;1.40;;;4.50;99.90;;;;;;5032571;28;20213;-69
2021/01/25 17:28:59;;;;;;;6.57;3.00;;;4.50;99.90;;;;;;5032827;28;20237;-70
2021/01/25 17:31:26;;;;;;;7.83;1.90;;;4.50;99.90;;;;;;5013858;28;20229;-69
2021/01/25 17:33:52;;;;;;;6.07;1.20;;;4.40;99.90;;;;;;5028632;28;20736;-69
2021/01/25 17:36:18;;;;;;;1.40;1.00;;;4.40;99.90;;;;;;5033138;28;20248;-72
2021/01/25 17:38:44;;;;;;;3.20;1.30;;;4.30;99.90;;;;;;5032486;28;20219;-70
2021/01/25 17:41:11;;;;;;;2.27;1.10;;;4.30;99.90;;;;;;5033247;28;20229;-80
2021/01/25 17:43:39;;;;;;;9.80;1.20;;;4.40;99.90;;;;;;5033408;28;20201;-80
2021/01/25 17:46:06;;;;;;;4.93;1.00;;;4.30;99.90;;;;;;5034230;28;20209;-80
2021/01/25 17:48:33;;;;;;;2.50;1.17;;;4.40;99.90;;;;;;5033486;28;20233;-71
2021/01/25 17:50:59;;;;;;;2.80;1.07;;;4.30;99.90;;;;;;5033980;28;20224;-78
2021/01/25 17:53:25;;;;;;;3.40;1.30;;;4.20;99.90;;;;;;5030655;28;20204;-70
2021/01/25 17:55:54;;;;;;;5.87;1.40;;;4.20;99.90;;;;;;5045741;28;20659;-69
2021/01/25 17:58:21;;;;;;;3.07;1.60;;;4.10;99.90;;;;;;5051525;28;20658;-69
2021/01/25 18:00:47;;;;;;;3.17;1.60;;;4.10;99.90;;;;;;5037497;28;20212;-71
2021/01/25 18:03:14;;;;;;;3.13;1.57;;;4.10;99.90;;;;;;5031663;28;20208;-73
2021/01/25 18:05:40;;;;;;;2.07;1.30;;;4.10;99.90;;;;;;5031957;28;20251;-69
2021/01/25 18:08:06;;;;;;;2.93;1.53;;;4.10;99.90;;;;;;5045806;28;20231;-69
2021/01/25 18:10:34;;;;;;;6.57;1.70;;;4.00;99.90;;;;;;5038834;28;20610;-78
2021/01/25 18:13:00;;;;;;;2.77;1.50;;;3.90;99.90;;;;;;5031377;28;20229;-74
2021/01/25 18:15:29;;;;;;;4.40;1.70;;;4.00;99.90;;;;;;5041451;28;20204;-80
2021/01/25 18:17:57;;;;;;;5.47;2.57;;;3.90;99.90;;;;;;5051391;28;20655;-79
2021/01/25 18:20:24;;;;;;;3.13;1.50;;;3.80;99.90;;;;;;5040761;28;20209;-72
2021/01/25 18:22:50;;;;;;;4.63;1.83;;;4.00;99.90;;;;;;5032230;28;20272;-70
2021/01/25 18:25:17;;;;;;;5.40;2.07;;;3.90;99.90;;;;;;5031562;28;20209;-71
2021/01/25 18:27:43;;;;;;;5.30;2.10;;;3.90;99.90;;;;;;5032096;28;20216;-69
2021/01/25 18:30:12;;;;;;;10.47;2.30;;;3.90;99.90;;;;;;5031138;28;20205;-70
2021/01/25 18:32:39;;;;;;;6.20;2.20;;;3.90;99.90;;;;;;5031359;28;20699;-71
2021/01/25 18:35:08;;;;;;;6.97;2.27;;;4.00;99.90;;;;;;5039439;28;20208;-78
2021/01/25 18:37:34;;;;;;;3.80;1.93;;;4.10;99.90;;;;;;5052916;28;20219;-70
2021/01/25 18:40:01;;;;;;;5.17;2.30;;;4.10;99.90;;;;;;5044294;28;20209;-71
2021/01/25 18:42:28;;;;;;;9.90;2.73;;;4.00;99.90;;;;;;5028678;28;20268;-70
2021/01/25 18:44:54;;;;;;;8.40;3.73;;;4.00;99.90;;;;;;5032014;28;20271;-72
2021/01/25 18:47:20;;;;;;;5.60;2.90;;;3.90;99.90;;;;;;5031652;28;20205;-70
2021/01/25 18:49:47;;;;;;;7.57;2.83;;;3.90;99.90;;;;;;5030863;28;20615;-69
2021/01/25 18:52:14;;;;;;;5.57;2.10;;;4.00;99.90;;;;;;5031274;28;20717;-70
2021/01/25 18:54:40;;;;;;;5.83;2.67;;;4.00;99.90;;;;;;5031408;28;20205;-70
2021/01/25 18:57:06;;;;;;;12.87;2.23;;;3.90;99.90;;;;;;5031048;28;20219;-71
2021/01/25 18:59:32;;;;;;;3.67;2.33;;;4.00;99.90;;;;;;5031510;28;20216;-76
2021/01/25 19:01:59;;;;;;;3.50;2.00;;;4.10;99.90;;;;;;5031214;28;20232;-77
2021/01/25 19:04:25;;;;;;;5.30;2.50;;;4.00;99.90;;;;;;5047857;28;20212;-70
2021/01/25 19:06:52;;;;;;;4.23;2.33;;;4.00;99.90;;;;;;5041956;28;20208;-70
2021/01/25 19:09:18;;;;;;;8.00;3.67;;;4.10;99.90;;;;;;5048437;28;20644;-71
2021/01/25 19:11:45;;;;;;;4.77;2.10;;;4.10;99.90;;;;;;5029897;28;20745;-70
2021/01/25 19:14:11;;;;;;;3.93;2.27;;;4.20;99.90;;;;;;5031711;28;20213;-71
2021/01/25 19:16:37;;;;;;;4.57;2.53;;;4.20;99.90;;;;;;5031402;28;20205;-70
2021/01/25 19:19:04;;;;;;;7.83;2.30;;;4.10;99.90;;;;;;5031917;28;20220;-75
2021/01/25 19:21:31;;;;;;;4.47;2.30;;;4.10;99.90;;;;;;5031777;28;20233;-70
2021/01/25 19:23:58;;;;;;;4.00;2.20;;;4.00;99.90;;;;;;5032063;28;20269;-78
2021/01/25 19:26:25;;;;;;;4.53;2.53;;;4.00;99.90;;;;;;5031592;28;20216;-71
2021/01/25 19:28:51;;;;;;;4.10;2.20;;;4.00;99.90;;;;;;5032386;28;20232;-70
2021/01/25 19:31:17;;;;;;;5.33;2.40;;;4.00;99.90;;;;;;5032617;28;20229;-71
2021/01/25 19:33:44;;;;;;;10.23;2.83;;;4.00;99.90;;;;;;5032416;28;20205;-70
2021/01/25 19:36:10;;;;;;;5.93;2.70;;;4.10;99.90;;;;;;5028863;28;20213;-70
2021/01/25 19:38:37;;;;;;;5.23;2.30;;;4.10;99.90;;;;;;5036474;28;20204;-76
2021/01/25 19:41:05;;;;;;;7.43;2.80;;;4.10;99.90;;;;;;5050463;28;20270;-81
2021/01/25 19:43:31;;;;;;;5.70;2.40;;;4.10;99.90;;;;;;5011780;28;20553;-75
2021/01/25 19:45:59;;;;;;;7.43;2.20;;;4.10;99.90;;;;;;5026766;28;20201;-69
2021/01/25 19:48:28;;;;;;;3.87;1.97;;;4.10;99.90;;;;;;5022029;28;20287;-70
2021/01/25 19:50:55;;;;;;;4.80;2.10;;;4.30;99.90;;;;;;5033466;28;20209;-70
2021/01/25 19:53:22;;;;;;;6.43;1.93;;;4.30;99.90;;;;;;5030385;28;20548;-77
2021/01/25 19:55:49;;;;;;;5.13;2.20;;;4.40;99.90;;;;;;5030956;28;20201;-69
2021/01/25 19:58:17;;;;;;;4.07;1.90;;;4.30;99.90;;;;;;5030096;28;20228;-70
2021/01/25 20:00:45;;;;;;;5.90;1.90;;;4.20;99.90;;;;;;5030943;28;20284;-80
2021/01/25 20:03:12;;;;;;;7.53;3.07;;;4.20;99.90;;;;;;5029660;28;20219;-75
2021/01/25 20:05:38;;;;;;;6.03;2.60;;;4.10;99.90;;;;;;5035393;28;20265;-69
2021/01/25 20:08:05;;;;;;;4.33;2.43;;;4.10;99.90;;;;;;5051406;28;20216;-69
2021/01/25 20:10:33;;;;;;;4.77;2.73;;;4.10;99.90;;;;;;5052101;28;20204;-70
2021/01/25 20:13:00;;;;;;;3.90;2.10;;;4.10;99.90;;;;;;5052053;28;20224;-69
2021/01/25 20:15:30;;;;;;;4.53;2.07;;;4.10;99.90;;;;;;5052068;28;20662;-70
2021/01/25 20:17:56;;;;;;;5.80;2.63;;;4.10;99.90;;;;;;5052300;28;20205;-81
2021/01/25 20:20:23;;;;;;;8.97;2.20;;;4.20;99.90;;;;;;5052184;28;20609;-71
2021/01/25 20:22:50;;;;;;;5.43;2.43;;;4.10;99.90;;;;;;5053463;28;20224;-74
2021/01/25 20:25:19;;;;;;;3.73;2.20;;;4.10;99.90;;;;;;5055438;28;20582;-70
2021/01/25 20:27:45;;;;;;;4.80;2.60;;;4.10;99.90;;;;;;5055646;28;20207;-70
2021/01/25 20:30:16;;;;;;;9.23;2.20;;;4.30;99.90;;;;;;5055921;28;20251;-70
2021/01/25 20:32:43;;;;;;;4.50;2.27;;;4.30;99.90;;;;;;5055715;28;20228;-82
2021/01/25 20:35:15;;;;;;;7.07;2.30;;;4.40;99.90;;;;;;5055725;28;20207;-70
2021/01/25 20:37:41;;;;;;;7.00;2.10;;;4.40;99.90;;;;;;5056069;28;20204;-70
2021/01/25 20:40:08;;;;;;;3.50;2.17;;;4.40;99.90;;;;;;5055529;28;20204;-70
2021/01/25 20:42:35;;;;;;;9.93;2.57;;;4.40;99.90;;;;;;5055385;28;20289;-84
2021/01/25 20:45:02;;;;;;;4.27;2.50;;;4.40;99.90;;;;;;5055408;28;20265;-70
2021/01/25 20:47:29;;;;;;;3.23;1.90;;;4.50;99.90;;;;;;5055335;28;20209;-70
2021/01/25 20:49:56;;;;;;;6.13;2.23;;;4.50;99.90;;;;;;5055240;28;20232;-76
2021/01/25 20:52:22;;;;;;;3.83;2.47;;;4.50;99.90;;;;;;5055192;28;20662;-70
2021/01/25 20:54:48;;;;;;;4.17;2.30;;;4.60;99.90;;;;;;5055141;28;20772;-70
2021/01/25 20:57:14;;;;;;;4.07;2.37;;;4.60;99.90;;;;;;5055232;28;20208;-70
2021/01/25 20:59:42;;;;;;;7.63;2.53;;;4.70;99.90;;;;;;5055339;28;20208;-70
2021/01/25 21:02:08;;;;;;;5.40;2.13;;;4.60;99.90;;;;;;5055451;28;20224;-83
2021/01/25 21:04:34;;;;;;;4.37;2.43;;;4.60;99.90;;;;;;5055105;28;20219;-71
2021/01/25 21:07:01;;;;;;;7.63;2.23;;;4.60;99.90;;;;;;5055102;28;20209;-84
2021/01/25 21:09:28;;;;;;;3.60;2.20;;;4.70;99.90;;;;;;5054643;28;20227;-83
2021/01/25 21:11:54;;;;;;;5.10;2.27;;;4.70;99.90;;;;;;5054788;28;20730;-71
2021/01/25 21:14:20;;;;;;;6.87;2.40;;;4.70;99.90;;;;;;5055138;28;20215;-71
2021/01/25 21:16:47;;;;;;;5.27;2.90;;;4.70;99.90;;;;;;5054720;28;20212;-70
2021/01/25 21:19:13;;;;;;;3.97;2.20;;;4.80;99.90;;;;;;5055452;28;20675;-72
2021/01/25 21:21:39;;;;;;;4.83;1.77;;;4.70;99.90;;;;;;5054861;28;20228;-70
2021/01/25 21:24:07;;;;;;;5.23;2.70;;;4.70;99.90;;;;;;5054933;28;20346;-71
2021/01/25 21:26:34;;;;;;;3.77;2.00;;;4.60;99.90;;;;;;5054368;28;20611;-84
2021/01/25 21:29:00;;;;;;;3.07;1.97;;;4.70;99.90;;;;;;5054569;28;20235;-72
2021/01/25 21:31:27;;;;;;;8.83;2.67;;;4.80;99.90;;;;;;5054520;28;20224;-69
2021/01/25 21:33:53;;;;;;;4.87;2.30;;;4.70;99.90;;;;;;5054123;28;20204;-70
2021/01/25 21:36:19;;;;;;;5.67;2.63;;;4.80;99.90;;;;;;5054437;28;20200;-85
2021/01/25 21:38:46;;;;;;;5.87;1.90;;;4.70;99.90;;;;;;5054288;28;20675;-70
2021/01/25 21:41:14;;;;;;;4.30;2.10;;;4.60;99.90;;;;;;5054360;28;20235;-70
2021/01/25 21:43:41;;;;;;;3.33;1.93;;;4.50;99.90;;;;;;5054276;28;20663;-70
2021/01/25 21:46:07;;;;;;;6.77;2.17;;;4.50;99.90;;;;;;5054592;28;20208;-70
2021/01/25 21:48:33;;;;;;;5.00;1.83;;;4.50;99.90;;;;;;5054135;28;20578;-84
2021/01/25 21:51:00;;;;;;;6.90;2.37;;;4.70;99.90;;;;;;5054090;28;20706;-70
2021/01/25 21:53:26;;;;;;;5.90;2.00;;;4.70;99.90;;;;;;5054287;28;20208;-70
2021/01/25 21:55:53;;;;;;;6.03;2.23;;;4.80;99.90;;;;;;5054120;28;20601;-70
2021/01/25 21:58:20;;;;;;;5.43;2.33;;;4.80;99.90;;;;;;5054132;28;20674;-83
2021/01/25 22:00:46;;;;;;;6.50;2.23;;;4.80;99.90;;;;;;5053719;28;20613;-68
2021/01/25 22:03:12;;;;;;;3.27;1.70;;;4.80;99.90;;;;;;5053794;28;20208;-76
2021/01/25 22:05:39;;;;;;;6.83;2.73;;;4.70;99.90;;;;;;5053731;28;20283;-84
2021/01/25 22:08:06;;;;;;;7.70;1.87;;;4.50;99.90;;;;;;5054068;28;20254;-70
2021/01/25 22:10:33;;;;;;;9.20;2.03;;;4.40;99.90;;;;;;5053911;28;20235;-70
2021/01/25 22:13:00;;;;;;;7.77;2.37;;;4.40;99.90;;;;;;5053672;28;20287;-68
2021/01/25 22:15:29;;;;;;;4.80;2.40;;;4.40;99.90;;;;;;5053853;28;20598;-69
2021/01/25 22:17:55;;;;;;;8.07;2.33;;;4.40;99.90;;;;;;5053514;28;20692;-71
2021/01/25 22:20:24;;;;;;;5.30;2.20;;;4.50;99.90;;;;;;5053351;28;20219;-69
2021/01/25 22:22:52;;;;;;;6.10;2.10;;;4.50;99.90;;;;;;5053707;28;20235;-75
2021/01/25 22:25:21;;;;;;;7.27;2.10;;;4.60;99.90;;;;;;5053330;28;20670;-70
2021/01/25 22:27:47;;;;;;;10.00;2.40;;;4.60;99.90;;;;;;5053648;28;20204;-70
2021/01/25 22:30:18;;;;;;;5.20;2.30;;;4.60;99.90;;;;;;5053457;28;20572;-82
2021/01/25 22:32:46;;;;;;;6.53;1.97;;;4.60;99.90;;;;;;5053091;28;20228;-70
2021/01/25 22:35:15;;;;;;;4.77;1.80;;;4.70;99.90;;;;;;5053324;28;20215;-70
2021/01/25 22:37:42;;;;;;;9.33;2.43;;;4.70;99.90;;;;;;5053539;28;20216;-70
2021/01/25 22:40:10;;;;;;;5.03;1.90;;;4.70;99.90;;;;;;5053622;28;20204;-80
2021/01/25 22:42:36;;;;;;;7.03;2.20;;;4.70;99.90;;;;;;5053109;28;20613;-70
2021/01/25 22:45:03;;;;;;;3.30;2.10;;;4.70;99.90;;;;;;5052530;28;20215;-70
2021/01/25 22:47:30;;;;;;;6.33;2.10;;;4.70;99.90;;;;;;5052993;28;20212;-71
2021/01/25 22:49:57;;;;;;;6.67;1.97;;;4.70;99.90;;;;;;5053204;28;20236;-71
2021/01/25 22:52:23;;;;;;;6.73;2.03;;;4.80;99.90;;;;;;5052771;28;20278;-81
2021/01/25 22:54:49;;;;;;;6.20;1.70;;;4.80;99.90;;;;;;5052906;28;20658;-68
